createdAt,value
2023-04-12T00:02:02.972Z,7.80
2023-04-12T00:04:30.271Z,7.72
2023-04-12T00:06:57.935Z,7.72
2023-04-12T00:09:25.241Z,7.52
2023-04-12T00:11:52.185Z,7.60
2023-04-12T00:14:19.325Z,7.52
2023-04-12T00:16:46.393Z,7.56
2023-04-12T00:19:13.332Z,7.55
2023-04-12T00:21:40.312Z,7.64
2023-04-12T00:24:07.650Z,7.59
2023-04-12T00:26:34.877Z,7.55
2023-04-12T00:29:01.811Z,7.52
2023-04-12T00:31:29.290Z,7.49
2023-04-12T00:33:56.715Z,7.44
2023-04-12T00:36:23.761Z,7.40
2023-04-12T00:38:50.661Z,7.45
2023-04-12T00:41:18.102Z,7.48
2023-04-12T00:43:45.028Z,7.48
2023-04-12T00:46:12.349Z,7.56
2023-04-12T00:48:40.083Z,7.44
2023-04-12T00:51:07.885Z,7.64
2023-04-12T00:53:35.699Z,7.67
2023-04-12T00:56:04.173Z,7.62
2023-04-12T00:58:31.885Z,7.69
2023-04-12T01:00:59.241Z,7.71
2023-04-12T01:03:27.829Z,7.77
2023-04-12T01:06:09.621Z,7.81
2023-04-12T01:08:58.289Z,7.74
2023-04-12T01:12:06.635Z,7.86
2023-04-12T01:14:58.845Z,7.83
2023-04-12T01:17:37.895Z,7.91
2023-04-12T01:20:13.431Z,7.90
2023-04-12T01:23:17.835Z,8.03
2023-04-12T01:26:02.635Z,8.05
2023-04-12T01:28:45.582Z,7.90
2023-04-12T01:31:14.130Z,8.02
2023-04-12T01:33:43.320Z,7.88
2023-04-12T01:36:18.231Z,7.96
2023-04-12T01:38:45.737Z,7.89
2023-04-12T01:41:12.718Z,7.90
2023-04-12T01:43:44.652Z,7.92
2023-04-12T01:46:20.407Z,8.01
2023-04-12T01:48:53.092Z,8.03
2023-04-12T01:51:50.241Z,8.14
2023-04-12T01:54:28.122Z,8.13
2023-04-12T01:57:00.366Z,8.19
2023-04-12T01:59:32.113Z,8.24
2023-04-12T02:01:59.204Z,8.26
2023-04-12T02:04:27.775Z,8.24
2023-04-12T02:06:56.102Z,8.23
2023-04-12T02:09:23.785Z,8.23
2023-04-12T02:11:51.033Z,8.24
2023-04-12T02:14:18.118Z,8.30
2023-04-12T02:16:46.345Z,8.24
2023-04-12T02:19:13.865Z,8.30
2023-04-12T02:21:46.696Z,8.25
2023-04-12T02:24:15.599Z,8.26
2023-04-12T02:26:45.026Z,8.19
2023-04-12T02:29:12.911Z,8.26
2023-04-12T02:31:40.192Z,8.24
2023-04-12T02:34:10.779Z,8.22
2023-04-12T02:36:40.565Z,8.16
2023-04-12T02:39:07.811Z,8.14
2023-04-12T02:41:36.383Z,8.13
2023-04-12T02:44:06.150Z,8.17
2023-04-12T02:46:33.214Z,8.18
2023-04-12T02:49:00.217Z,8.17
2023-04-12T02:51:35.287Z,8.18
2023-04-12T02:54:02.543Z,8.21
2023-04-12T02:56:39.061Z,8.17
2023-04-12T02:59:25.264Z,8.11
2023-04-12T03:02:09.069Z,8.13
2023-04-12T03:04:39.810Z,8.12
2023-04-12T03:07:11.360Z,8.12
2023-04-12T03:09:53.306Z,8.15
2023-04-12T03:12:22.824Z,8.21
2023-04-12T03:15:04.225Z,8.22
2023-04-12T03:17:31.239Z,8.28
2023-04-12T03:20:10.659Z,8.17
2023-04-12T03:22:42.395Z,8.23
2023-04-12T03:25:12.560Z,8.25
2023-04-12T03:27:45.182Z,8.17
2023-04-12T03:30:15.302Z,8.13
2023-04-12T03:32:44.045Z,8.16
2023-04-12T03:35:11.650Z,8.17
2023-04-12T03:37:42.734Z,8.16
2023-04-12T03:40:11.790Z,8.15
2023-04-12T03:42:42.230Z,8.06
2023-04-12T03:45:12.422Z,8.15
2023-04-12T03:47:42.809Z,8.12
2023-04-12T03:50:12.272Z,8.09
2023-04-12T03:52:44.255Z,8.12
2023-04-12T03:55:11.915Z,8.00
2023-04-12T03:57:39.043Z,8.08
2023-04-12T04:00:08.858Z,8.07
2023-04-12T04:02:47.250Z,8.02
2023-04-12T04:05:15.841Z,7.99
2023-04-12T04:07:44.770Z,7.97
2023-04-12T04:10:12.789Z,7.95
2023-04-12T04:12:44.728Z,8.08
2023-04-12T04:15:15.058Z,8.00
2023-04-12T04:17:43.100Z,7.96
2023-04-12T04:20:13.541Z,7.90
2023-04-12T04:22:42.979Z,8.03
2023-04-12T04:25:10.510Z,8.07
2023-04-12T04:27:44.786Z,8.10
2023-04-12T04:30:12.717Z,8.03
2023-04-12T04:32:44.217Z,8.14
2023-04-12T04:35:12.295Z,8.12
2023-04-12T04:37:52.756Z,8.06
2023-04-12T04:40:22.038Z,8.20
2023-04-12T04:42:54.625Z,8.19
2023-04-12T04:45:28.755Z,8.24
2023-04-12T04:47:56.677Z,8.17
2023-04-12T04:50:24.787Z,8.29
2023-04-12T04:52:53.339Z,8.33
2023-04-12T04:55:45.347Z,8.30
2023-04-12T04:58:13.476Z,8.43
2023-04-12T05:00:44.832Z,8.41
2023-04-12T05:03:12.641Z,8.40
2023-04-12T05:05:40.305Z,8.47
2023-04-12T05:08:10.843Z,8.45
2023-04-12T05:10:37.792Z,8.44
2023-04-12T05:13:04.701Z,8.53
2023-04-12T05:15:31.939Z,8.69
2023-04-12T05:17:59.842Z,8.76
2023-04-12T05:20:26.806Z,8.67
2023-04-12T05:22:54.005Z,8.86
2023-04-12T05:25:21.094Z,8.89
2023-04-12T05:28:02.625Z,9.06
2023-04-12T05:30:29.993Z,9.12
2023-04-12T05:32:57.648Z,9.17
2023-04-12T05:35:25.673Z,9.22
2023-04-12T05:37:57.994Z,9.25
2023-04-12T05:40:25.080Z,9.28
2023-04-12T05:42:54.593Z,9.24
2023-04-12T05:45:21.652Z,9.19
2023-04-12T05:47:48.686Z,9.31
2023-04-12T05:50:15.781Z,9.24
2023-04-12T05:52:43.678Z,9.36
2023-04-12T05:55:10.723Z,9.34
2023-04-12T05:57:41.013Z,9.45
2023-04-12T06:00:14.303Z,9.38
2023-04-12T06:02:45.657Z,9.41
2023-04-12T06:05:13.219Z,9.40
2023-04-12T06:07:44.547Z,9.49
2023-04-12T06:10:15.799Z,9.51
2023-04-12T06:12:43.035Z,9.50
2023-04-12T06:15:10.636Z,9.46
2023-04-12T06:17:38.206Z,9.57
2023-04-12T06:20:08.689Z,9.55
2023-04-12T06:22:37.753Z,9.59
2023-04-12T06:25:06.113Z,9.61
2023-04-12T06:27:33.101Z,9.63
2023-04-12T06:30:03.034Z,9.63
2023-04-12T06:32:33.785Z,9.79
2023-04-12T06:35:01.141Z,9.84
2023-04-12T06:37:28.161Z,9.82
2023-04-12T06:39:55.078Z,9.79
2023-04-12T06:42:22.083Z,9.73
2023-04-12T06:44:48.951Z,9.70
2023-04-12T06:47:16.221Z,9.71
2023-04-12T06:49:43.149Z,9.73
2023-04-12T06:52:10.122Z,9.59
2023-04-12T06:54:38.358Z,9.71
2023-04-12T06:57:11.036Z,9.80
2023-04-12T06:59:37.945Z,9.84
2023-04-12T07:02:05.014Z,9.83
2023-04-12T07:04:31.904Z,9.90
2023-04-12T07:06:58.873Z,9.82
2023-04-12T07:09:25.961Z,9.88
2023-04-12T07:11:52.901Z,9.87
2023-04-12T07:14:19.912Z,9.68
2023-04-12T07:16:46.862Z,9.88
2023-04-12T07:19:13.822Z,9.93
2023-04-12T07:21:41.419Z,9.84
2023-04-12T07:24:08.446Z,9.81
2023-04-12T07:26:35.462Z,9.82
2023-04-12T07:29:02.433Z,9.75
2023-04-12T07:31:30.790Z,9.81
2023-04-12T07:33:57.821Z,9.76
2023-04-12T07:36:24.841Z,9.81
2023-04-12T07:38:55.832Z,9.79
2023-04-12T07:41:23.287Z,9.73
2023-04-12T07:43:50.403Z,9.62
2023-04-12T07:46:17.447Z,9.84
2023-04-12T07:48:44.459Z,9.76
2023-04-12T07:51:11.650Z,9.65
2023-04-12T07:53:38.773Z,9.76
2023-04-12T07:56:06.928Z,9.68
2023-04-12T07:58:37.393Z,9.69
2023-04-12T08:01:04.616Z,9.67
2023-04-12T08:03:31.752Z,9.63
2023-04-12T08:06:00.036Z,9.60
2023-04-12T08:08:27.304Z,9.52
2023-04-12T08:10:54.605Z,9.49
2023-04-12T08:13:22.290Z,9.47
2023-04-12T08:15:49.416Z,9.44
2023-04-12T08:18:16.454Z,9.46
2023-04-12T08:20:47.052Z,9.46
2023-04-12T08:23:14.030Z,9.51
2023-04-12T08:25:41.198Z,9.37
2023-04-12T08:28:08.303Z,9.54
2023-04-12T08:30:35.829Z,9.50
2023-04-12T08:33:03.007Z,9.62
2023-04-12T08:35:30.343Z,9.61
2023-04-12T08:38:06.972Z,9.79
2023-04-12T08:40:34.198Z,9.71
2023-04-12T08:43:09.983Z,9.88
2023-04-12T08:45:38.151Z,9.81
2023-04-12T08:48:06.141Z,9.85
2023-04-12T08:50:33.520Z,10.01
2023-04-12T08:53:00.809Z,9.81
2023-04-12T08:55:27.722Z,10.10
2023-04-12T08:57:56.869Z,10.06
2023-04-12T09:00:24.406Z,10.08
2023-04-12T09:02:51.722Z,9.96
2023-04-12T09:05:18.969Z,9.95
2023-04-12T09:07:45.911Z,9.88
2023-04-12T09:10:35.164Z,9.97
2023-04-12T09:13:04.001Z,10.05
2023-04-12T09:15:31.293Z,9.97
2023-04-12T09:18:09.466Z,10.12
2023-04-12T09:20:39.822Z,10.16
2023-04-12T09:23:22.048Z,10.15
2023-04-12T09:25:51.764Z,10.21
2023-04-12T09:28:22.990Z,10.20
2023-04-12T09:30:53.158Z,10.09
2023-04-12T09:33:22.370Z,10.24
2023-04-12T09:35:49.838Z,10.08
2023-04-12T09:38:17.166Z,10.12
2023-04-12T09:40:44.217Z,10.06
2023-04-12T09:43:11.313Z,9.99
2023-04-12T09:45:39.062Z,10.06
2023-04-12T09:48:07.383Z,10.13
2023-04-12T09:50:34.829Z,10.18
2023-04-12T09:53:04.025Z,10.37
2023-04-12T09:55:32.434Z,10.27
2023-04-12T09:58:04.059Z,10.23
2023-04-12T10:00:34.363Z,10.37
2023-04-12T10:03:02.884Z,10.29
2023-04-12T10:05:30.287Z,10.34
2023-04-12T10:08:00.444Z,10.32
2023-04-12T10:10:31.262Z,10.32
2023-04-12T10:12:58.629Z,10.31
2023-04-12T10:15:25.983Z,10.26
2023-04-12T10:17:57.656Z,10.22
2023-04-12T10:20:28.975Z,10.34
2023-04-12T10:22:59.304Z,10.37
2023-04-12T10:25:31.034Z,10.25
2023-04-12T10:28:13.710Z,10.39
2023-04-12T10:30:40.743Z,10.31
2023-04-12T10:33:10.488Z,10.43
2023-04-12T10:36:03.096Z,10.46
2023-04-12T10:38:37.364Z,10.54
2023-04-12T10:41:22.549Z,10.54
2023-04-12T10:43:54.704Z,10.62
2023-04-12T10:46:38.680Z,10.59
2023-04-12T10:49:13.868Z,10.58
2023-04-12T10:52:01.752Z,10.60
2023-04-12T10:54:36.314Z,10.47
2023-04-12T10:57:05.106Z,10.51
2023-04-12T10:59:55.636Z,10.61
2023-04-12T11:02:23.217Z,10.64
2023-04-12T11:05:10.212Z,10.63
2023-04-12T11:08:00.790Z,10.80
2023-04-12T11:10:41.423Z,10.57
2023-04-12T11:13:15.046Z,10.66
2023-04-12T11:15:42.343Z,10.69
2023-04-12T11:18:12.579Z,10.77
2023-04-12T11:20:42.870Z,10.74
2023-04-12T11:23:11.753Z,10.73
2023-04-12T11:25:38.918Z,10.74
2023-04-12T11:28:14.075Z,10.83
2023-04-12T11:30:57.719Z,10.89
2023-04-12T11:33:38.236Z,10.86
2023-04-12T11:36:12.686Z,10.97
2023-04-12T11:38:40.626Z,11.01
2023-04-12T11:41:09.553Z,11.01
2023-04-12T11:43:38.620Z,11.13
2023-04-12T11:46:06.104Z,11.11
2023-04-12T11:48:33.296Z,11.10
2023-04-12T11:51:11.035Z,11.20
2023-04-12T11:53:38.934Z,11.21
2023-04-12T11:56:06.343Z,11.33
2023-04-12T11:58:33.555Z,11.55
2023-04-12T12:01:00.733Z,11.64
2023-04-12T12:03:28.210Z,11.42
2023-04-12T12:05:55.598Z,11.44
2023-04-12T12:08:24.348Z,11.42
2023-04-12T12:11:06.510Z,11.57
2023-04-12T12:13:53.499Z,11.69
2023-04-12T12:16:29.265Z,11.57
2023-04-12T12:18:57.233Z,11.60
2023-04-12T12:21:26.233Z,11.55
2023-04-12T12:23:53.240Z,11.70
2023-04-12T12:26:30.638Z,11.78
2023-04-12T12:29:00.120Z,11.79
2023-04-12T12:31:28.368Z,11.82
2023-04-12T12:34:05.846Z,11.77
2023-04-12T12:36:38.583Z,11.96
2023-04-12T12:39:11.546Z,12.01
2023-04-12T12:41:41.140Z,11.84
2023-04-12T12:44:08.677Z,11.99
2023-04-12T12:49:06.059Z,12.02
2023-04-12T12:51:33.240Z,11.99
2023-04-12T12:54:01.218Z,12.08
2023-04-12T12:56:28.174Z,11.93
2023-04-12T12:58:55.375Z,12.05
2023-04-12T13:01:22.367Z,12.08
2023-04-12T13:03:49.655Z,12.17
2023-04-12T13:06:16.865Z,12.10
2023-04-12T13:08:43.800Z,12.05
2023-04-12T13:11:10.940Z,11.95
2023-04-12T13:13:37.902Z,12.09
2023-04-12T13:16:05.611Z,12.23
2023-04-12T13:18:32.599Z,12.17
2023-04-12T13:20:59.566Z,12.22
2023-04-12T13:23:26.527Z,12.24
2023-04-12T13:25:53.498Z,12.28
2023-04-12T13:28:21.455Z,12.21
2023-04-12T13:30:48.703Z,12.14
2023-04-12T13:33:19.322Z,12.10
2023-04-12T13:35:48.126Z,12.06
2023-04-12T13:38:15.001Z,12.06
2023-04-12T13:40:41.999Z,12.11
2023-04-12T13:43:08.953Z,12.18
2023-04-12T13:45:36.141Z,12.19
2023-04-12T13:48:03.319Z,12.38
2023-04-12T13:50:30.360Z,12.53
2023-04-12T13:52:57.338Z,12.48
2023-04-12T13:55:24.238Z,12.44
2023-04-12T13:57:51.183Z,12.42
2023-04-12T14:00:19.540Z,12.38
2023-04-12T14:02:46.745Z,12.42
2023-04-12T14:05:14.076Z,12.40
2023-04-12T14:07:41.174Z,12.34
2023-04-12T14:10:08.903Z,12.45
2023-04-12T14:12:36.067Z,12.44
2023-04-12T14:15:03.441Z,12.44
2023-04-12T14:17:32.574Z,12.42
2023-04-12T14:20:00.423Z,12.50
2023-04-12T14:22:27.949Z,12.55
2023-04-12T14:24:55.082Z,12.49
2023-04-12T14:27:22.417Z,12.56
2023-04-12T14:29:51.899Z,12.62
2023-04-12T14:32:18.942Z,12.63
2023-04-12T14:34:46.535Z,12.73
2023-04-12T14:37:13.707Z,12.83
2023-04-12T14:39:40.856Z,12.75
2023-04-12T14:42:07.784Z,12.82
2023-04-12T14:44:34.734Z,12.88
2023-04-12T14:47:01.691Z,12.87
2023-04-12T14:49:32.839Z,12.84
2023-04-12T14:52:00.785Z,12.74
2023-04-12T14:54:27.709Z,12.89
2023-04-12T14:56:56.107Z,12.94
2023-04-12T14:59:23.492Z,12.95
2023-04-12T15:01:52.413Z,12.93
2023-04-12T15:04:20.253Z,12.95
2023-04-12T15:06:47.532Z,12.77
2023-04-12T15:09:15.844Z,12.78
2023-04-12T15:11:46.517Z,12.76
2023-04-12T15:14:18.130Z,12.82
2023-04-12T15:16:49.183Z,12.81
2023-04-12T15:19:21.104Z,12.72
2023-04-12T15:21:51.296Z,12.57
2023-04-12T15:24:27.359Z,12.65
2023-04-12T15:26:54.504Z,12.53
2023-04-12T15:29:26.688Z,12.53
2023-04-12T15:31:56.074Z,12.58
2023-04-12T15:34:28.324Z,12.52
2023-04-12T15:36:55.274Z,12.61
2023-04-12T15:39:22.486Z,12.46
2023-04-12T15:41:49.403Z,12.40
2023-04-12T15:44:16.783Z,12.58
2023-04-12T15:46:53.318Z,12.34
2023-04-12T15:49:31.322Z,12.68
2023-04-12T15:51:59.554Z,12.71
2023-04-12T15:54:26.594Z,12.82
2023-04-12T15:56:53.570Z,12.73
2023-04-12T15:59:20.542Z,12.78
2023-04-12T16:01:48.679Z,12.71
2023-04-12T16:04:18.711Z,12.63
2023-04-12T16:06:46.539Z,12.58
2023-04-12T16:09:14.428Z,12.55
2023-04-12T16:11:43.521Z,12.58
2023-04-12T16:14:11.441Z,12.61
2023-04-12T16:16:40.378Z,12.73
2023-04-12T16:19:08.361Z,12.67
2023-04-12T16:21:35.909Z,12.75
2023-04-12T16:24:03.294Z,12.80
2023-04-12T16:26:30.331Z,12.57
2023-04-12T16:28:57.937Z,12.72
2023-04-12T16:31:26.387Z,12.64
2023-04-12T16:33:54.004Z,12.21
2023-04-12T16:36:23.427Z,11.61
2023-04-12T16:38:59.172Z,10.94
2023-04-12T16:41:26.480Z,10.45
2023-04-12T16:43:55.017Z,10.11
2023-04-12T16:46:22.759Z,9.79
2023-04-12T16:48:49.958Z,9.59
2023-04-12T16:51:17.545Z,9.54
2023-04-12T16:53:44.461Z,9.52
2023-04-12T16:56:11.535Z,9.37
2023-04-12T16:58:38.453Z,9.36
2023-04-12T17:01:05.746Z,9.19
2023-04-12T17:03:33.299Z,9.23
2023-04-12T17:06:00.504Z,9.30
2023-04-12T17:08:27.563Z,9.14
2023-04-12T17:10:54.609Z,9.19
2023-04-12T17:13:22.341Z,9.17
2023-04-12T17:15:49.333Z,9.08
2023-04-12T17:18:16.419Z,9.05
2023-04-12T17:20:44.035Z,8.77
2023-04-12T17:23:11.439Z,8.79
2023-04-12T17:25:38.737Z,8.87
2023-04-12T17:28:07.862Z,8.66
2023-04-12T17:30:34.860Z,8.66
2023-04-12T17:33:01.981Z,8.47
2023-04-12T17:35:29.412Z,8.64
2023-04-12T17:37:59.238Z,8.62
2023-04-12T17:40:26.185Z,8.33
2023-04-12T17:42:53.197Z,8.36
2023-04-12T17:45:21.740Z,8.50
2023-04-12T17:47:48.988Z,8.46
2023-04-12T17:50:15.963Z,8.52
2023-04-12T17:52:42.861Z,8.54
2023-04-12T17:55:10.333Z,8.51
2023-04-12T17:57:37.317Z,8.61
2023-04-12T18:00:09.270Z,8.62
2023-04-12T18:02:40.612Z,8.50
2023-04-12T18:05:07.983Z,8.56
2023-04-12T18:07:35.394Z,8.58
2023-04-12T18:10:03.016Z,8.70
2023-04-12T18:12:32.831Z,8.67
2023-04-12T18:14:59.950Z,8.72
2023-04-12T18:17:27.101Z,8.71
2023-04-12T18:19:54.703Z,8.63
2023-04-12T18:22:21.877Z,8.54
2023-04-12T18:24:48.838Z,8.51
2023-04-12T18:27:16.080Z,8.51
2023-04-12T18:29:43.021Z,8.54
2023-04-12T18:32:09.871Z,8.54
2023-04-12T18:34:36.749Z,8.64
2023-04-12T18:37:05.967Z,8.65
2023-04-12T18:39:35.383Z,8.58
2023-04-12T18:42:02.670Z,8.66
2023-04-12T18:44:30.519Z,8.61
2023-04-12T18:46:57.458Z,8.59
2023-04-12T18:49:24.544Z,8.44
2023-04-12T18:51:53.171Z,8.26
2023-04-12T18:54:21.014Z,8.14
2023-04-12T18:56:47.980Z,8.01
2023-04-12T18:59:17.583Z,8.09
2023-04-12T19:01:45.885Z,8.22
2023-04-12T19:04:13.067Z,8.30
2023-04-12T19:06:40.066Z,8.55
2023-04-12T19:09:08.222Z,8.51
2023-04-12T19:11:37.090Z,8.60
2023-04-12T19:14:04.424Z,8.43
2023-04-12T19:16:32.008Z,8.53
2023-04-12T19:19:00.174Z,8.34
2023-04-12T19:21:29.199Z,8.28
2023-04-12T19:23:56.394Z,8.26
2023-04-12T19:26:23.632Z,8.15
2023-04-12T19:28:55.586Z,7.96
2023-04-12T19:31:23.891Z,7.78
2023-04-12T19:33:50.986Z,7.71
2023-04-12T19:36:17.851Z,7.92
2023-04-12T19:38:47.756Z,7.84
2023-04-12T19:41:17.502Z,7.89
2023-04-12T19:43:44.405Z,7.69
2023-04-12T19:46:11.723Z,7.74
2023-04-12T19:48:38.740Z,7.49
2023-04-12T19:51:05.831Z,7.29
2023-04-12T19:53:33.913Z,7.14
2023-04-12T19:56:03.892Z,7.06
2023-04-12T19:58:32.002Z,7.15
2023-04-12T20:01:02.144Z,7.21
2023-04-12T20:03:29.864Z,7.41
2023-04-12T20:05:58.870Z,7.45
2023-04-12T20:08:28.453Z,7.74
2023-04-12T20:10:56.210Z,7.90
2023-04-12T20:13:23.271Z,8.03
2023-04-12T20:15:50.979Z,8.12
2023-04-12T20:18:17.924Z,8.23
2023-04-12T20:20:45.050Z,8.40
2023-04-12T20:23:15.370Z,8.41
2023-04-12T20:25:42.624Z,8.52
2023-04-12T20:28:09.932Z,8.47
2023-04-12T20:30:37.210Z,8.54
2023-04-12T20:33:04.761Z,8.61
2023-04-12T20:35:32.225Z,8.41
2023-04-12T20:37:59.972Z,8.44
2023-04-12T20:40:29.550Z,8.46
2023-04-12T20:42:56.868Z,8.31
2023-04-12T20:45:23.969Z,8.31
2023-04-12T20:47:51.122Z,8.33
2023-04-12T20:50:22.405Z,8.27
2023-04-12T20:52:51.823Z,8.36
2023-04-12T20:55:18.802Z,8.31
2023-04-12T20:57:46.411Z,8.34
2023-04-12T21:00:18.194Z,8.14
2023-04-12T21:02:45.956Z,8.28
2023-04-12T21:05:16.675Z,8.12
2023-04-12T21:07:43.720Z,7.97
2023-04-12T21:10:14.654Z,7.92
2023-04-12T21:12:42.627Z,7.78
2023-04-12T21:15:11.695Z,7.41
2023-04-12T21:17:39.141Z,7.43
2023-04-12T21:20:13.299Z,7.36
2023-04-12T21:22:45.042Z,7.17
2023-04-12T21:25:14.986Z,7.08
2023-04-12T21:27:43.664Z,6.96
2023-04-12T21:30:11.216Z,6.98
2023-04-12T21:32:38.583Z,6.93
2023-04-12T21:35:07.258Z,6.87
2023-04-12T21:37:35.983Z,6.92
2023-04-12T21:40:10.378Z,6.94
2023-04-12T21:42:38.368Z,6.91
2023-04-12T21:45:08.570Z,6.91
2023-04-12T21:47:35.681Z,6.88
2023-04-12T21:50:03.010Z,6.79
2023-04-12T21:52:29.960Z,6.76
2023-04-12T21:54:56.852Z,6.55
2023-04-12T21:57:23.765Z,6.63
2023-04-12T21:59:50.986Z,6.57
2023-04-12T22:02:17.926Z,6.53
2023-04-12T22:04:44.982Z,6.60
2023-04-12T22:07:13.048Z,6.59
2023-04-12T22:09:41.261Z,6.59
2023-04-12T22:12:09.128Z,6.61
2023-04-12T22:14:36.945Z,6.57
2023-04-12T22:17:05.948Z,6.40
2023-04-12T22:19:32.946Z,6.54
2023-04-12T22:21:59.815Z,6.61
2023-04-12T22:24:26.724Z,6.57
2023-04-12T22:26:57.347Z,6.58
2023-04-12T22:29:25.267Z,6.58
2023-04-12T22:31:52.623Z,6.61
2023-04-12T22:34:19.683Z,6.46
2023-04-12T22:36:51.510Z,6.22
2023-04-12T22:39:21.544Z,6.44
2023-04-12T22:41:53.218Z,6.36
2023-04-12T22:44:22.141Z,6.40
2023-04-12T22:46:50.200Z,6.48
2023-04-12T22:49:19.838Z,6.48
2023-04-12T22:51:46.793Z,6.43
2023-04-12T22:54:13.935Z,6.39
2023-04-12T22:56:46.931Z,6.35
2023-04-12T22:59:22.209Z,6.28
2023-04-12T23:01:49.355Z,6.32
2023-04-12T23:04:16.898Z,6.25
2023-04-12T23:06:44.480Z,6.09
2023-04-12T23:09:12.811Z,6.22
2023-04-12T23:11:41.700Z,6.23
2023-04-12T23:14:09.937Z,6.19
2023-04-12T23:16:47.021Z,6.06
2023-04-12T23:19:14.676Z,6.04
2023-04-12T23:21:42.894Z,6.14
2023-04-12T23:24:16.242Z,6.14
2023-04-12T23:26:45.102Z,6.04
2023-04-12T23:29:12.638Z,6.03
2023-04-12T23:31:41.788Z,6.16
2023-04-12T23:34:08.725Z,6.13
2023-04-12T23:36:36.669Z,6.19
2023-04-12T23:39:08.484Z,6.08
2023-04-12T23:41:35.615Z,6.07
2023-04-12T23:44:02.509Z,6.16
2023-04-12T23:46:29.704Z,6.07
2023-04-12T23:48:56.742Z,6.04
2023-04-12T23:51:23.699Z,6.12
2023-04-12T23:53:50.629Z,6.09
2023-04-12T23:56:17.635Z,6.10
2023-04-12T23:58:44.546Z,6.08
